Fuji Maru — JD2030 — position and weather

sailwx.info

Track history (hours):
 
Tides and Currents Weather Stations Pressure Air Temp Water Temp Dewpoint Dewpoint Depression Visibility Wind Speed Wind Dir Waves Ship Positions

Fuji Maru

Last reported at 2014-Aug-31 04:28 UTC. Time now 2014-Aug-31 04:36 UTC.
Position N 35°39' E 139°46'.

Length 38 m; draft 4.4 m.

Type: Tug. MMSI: 431001102.

Date/timePositionNaut miles runAvg speedWind from/ knotsBaromVisibWave heightAir tempDewpointWater temp
2014-Aug-31 04:28N 35°39' E 139°46'0 0.0
2014-Aug-31 03:31N 35°39' E 139°46'0 0.0
2014-Aug-31 02:31N 35°39' E 139°46'0 0.0
2014-Aug-31 01:31N 35°39' E 139°46'0 0.0
2014-Aug-31 00:31N 35°39' E 139°46'2 2.3
2014-Aug-30 23:31N 35°37' E 139°47'2 2.2
2014-Aug-30 22:26N 35°39' E 139°46'0 0.0
2014-Aug-30 21:29N 35°39' E 139°46'0 0.1
2014-Aug-30 20:32N 35°39' E 139°46'0 0.0
2014-Aug-30 19:32N 35°39' E 139°46'0 0.0
2014-Aug-30 18:29N 35°39' E 139°46'0 0.0
2014-Aug-30 17:29N 35°39' E 139°46'0 0.0
2014-Aug-30 16:32N 35°39' E 139°46'0 0.0
2014-Aug-30 15:32N 35°39' E 139°46'0 0.0
2014-Aug-30 14:29N 35°39' E 139°46'0 0.0
2014-Aug-30 13:26N 35°39' E 139°46'0 0.0
2014-Aug-30 12:29N 35°39' E 139°46'0 0.0
2014-Aug-30 11:32N 35°39' E 139°46'0 0.0
2014-Aug-30 10:32N 35°39' E 139°46'2 2.4
2014-Aug-30 09:32N 35°37' E 139°47'2 1.9
2014-Aug-30 08:33N 35°35' E 139°48'1 1.2
2014-Aug-30 07:32N 35°36' E 139°46'1 0.8
2014-Aug-30 06:33N 35°36' E 139°46'2 2.3
2014-Aug-30 05:31N 35°39' E 139°46'0 0.0
2014-Aug-30 04:31N 35°39' E 139°46'0 0.0
2014-Aug-30 03:28N 35°39' E 139°46'0 0.0
2014-Aug-30 02:31N 35°39' E 139°46'0 0.0
2014-Aug-30 01:28N 35°39' E 139°46'0 0.0
2014-Aug-30 00:25N 35°39' E 139°46'0 0.0
2014-Aug-29 23:31N 35°39' E 139°46'3 2.3
2014-Aug-29 22:26N 35°36' E 139°47'3 2.9
2014-Aug-29 21:32N 35°34' E 139°49'3 3.3
2014-Aug-29 20:34N 35°37' E 139°46'1 1.4
2014-Aug-29 19:34N 35°36' E 139°47'3 2.6
2014-Aug-29 18:33N 35°38' E 139°46'1 0.7
2014-Aug-29 17:31N 35°39' E 139°46'0 0.0
2014-Aug-29 16:31N 35°39' E 139°46'0 0.0
2014-Aug-29 15:25N 35°39' E 139°46'0 0.0
2014-Aug-29 14:22N 35°39' E 139°46'0 0.0
2014-Aug-29 13:31N 35°39' E 139°46'0 0.0
2014-Aug-29 12:31N 35°39' E 139°46'0 0.0
2014-Aug-29 11:31N 35°39' E 139°46'0 0.0
2014-Aug-29 10:28N 35°39' E 139°46'0 0.1
2014-Aug-29 09:31N 35°39' E 139°46'0 0.0
2014-Aug-29 08:31N 35°39' E 139°46'0 0.0
2014-Aug-29 07:28N 35°39' E 139°46'0 0.0
2014-Aug-29 06:31N 35°39' E 139°46'0 0.0
2014-Aug-29 05:28N 35°39' E 139°46'0 0.4
2014-Aug-29 04:33N 35°39' E 139°46'4 3.9
2014-Aug-29 03:33N 35°35' E 139°48'0 0.4
2014-Aug-29 02:33N 35°35' E 139°48'4 3.5
2014-Aug-29 01:26N 35°39' E 139°46'0 0.0
2014-Aug-29 00:32N 35°39' E 139°46'3 2.8
2014-Aug-28 23:29N 35°36' E 139°47'1 1.6
2014-Aug-28 22:34N 35°35' E 139°48'4 4.3
2014-Aug-28 21:31N 35°39' E 139°46'0 0.0
2014-Aug-28 20:25N 35°39' E 139°46'0 0.0
2014-Aug-28 19:28N 35°39' E 139°46'0 0.0
2014-Aug-28 18:31N 35°39' E 139°46'0 0.0
2014-Aug-28 17:31N 35°39' E 139°46'0 0.0
2014-Aug-28 16:31N 35°39' E 139°46'0 0.0
2014-Aug-28 15:31N 35°39' E 139°46'0 0.0
2014-Aug-28 14:25N 35°39' E 139°46'0 0.0
2014-Aug-28 13:31N 35°39' E 139°46'0 0.0
2014-Aug-28 12:28N 35°39' E 139°46'0 0.0
2014-Aug-28 11:25N 35°39' E 139°46'0 0.0
2014-Aug-28 10:31N 35°39' E 139°46'0 0.0
2014-Aug-28 09:25N 35°39' E 139°46'0 0.0
2014-Aug-28 08:31N 35°39' E 139°46'0 0.0
2014-Aug-28 07:31N 35°39' E 139°46'0 0.0
2014-Aug-28 06:31N 35°39' E 139°46'0 0.0
2014-Aug-28 05:31N 35°39' E 139°46'0 0.0
2014-Aug-28 04:31N 35°39' E 139°46'0 0.0
2014-Aug-28 03:25N 35°39' E 139°46'0 0.0
2014-Aug-28 02:31N 35°39' E 139°46'0 0.0
2014-Aug-28 01:28N 35°39' E 139°46'0 0.0
2014-Aug-28 00:31N 35°39' E 139°46'0 0.0
2014-Aug-27 23:31N 35°39' E 139°46'0 0.0
2014-Aug-27 22:31N 35°39' E 139°46'0 0.0
2014-Aug-27 21:31N 35°39' E 139°46'0 0.0
2014-Aug-27 20:31N 35°39' E 139°46'2 2.2
2014-Aug-27 19:28N 35°36' E 139°46'2 1.7
2014-Aug-27 18:31N 35°38' E 139°46'0 0.0
2014-Aug-27 17:31N 35°38' E 139°46'0 0.0
2014-Aug-27 16:31N 35°38' E 139°46'0 0.0
2014-Aug-27 15:28N 35°38' E 139°46'1 0.8
2014-Aug-27 14:33N 35°37' E 139°46'2 2.0
2014-Aug-27 13:33N 35°36' E 139°48'0 0.0
2014-Aug-27 12:30N 35°36' E 139°48'1 1.0
2014-Aug-27 11:33N 35°36' E 139°47'1 0.8
2014-Aug-27 10:29N 35°37' E 139°47'1 1.0
2014-Aug-27 09:31N 35°36' E 139°47'3 2.8
2014-Aug-27 08:33N 35°34' E 139°49'6 5.1
2014-Aug-27 07:29N 35°39' E 139°46'0 0.0
2014-Aug-27 06:32N 35°39' E 139°46'0 0.0
2014-Aug-27 05:32N 35°39' E 139°46'0 0.0
2014-Aug-27 04:32N 35°39' E 139°46'0 0.0
2014-Aug-27 03:32N 35°39' E 139°46'0 0.0
2014-Aug-27 02:29N 35°39' E 139°46'0 0.0
2014-Aug-27 01:32N 35°39' E 139°46'0 0.0
2014-Aug-27 00:32N 35°39' E 139°46'0 0.3
2014-Aug-26 23:33N 35°39' E 139°46'4 3.7
2014-Aug-26 22:34N 35°35' E 139°47'4 3.9
2014-Aug-26 21:32N 35°39' E 139°46'0 0.0
2014-Aug-26 20:26N 35°39' E 139°46'0 0.0
2014-Aug-26 19:32N 35°39' E 139°46'0 0.0
2014-Aug-26 18:29N 35°39' E 139°46'0 0.0
2014-Aug-26 17:32N 35°39' E 139°46'0 0.0
2014-Aug-26 16:32N 35°39' E 139°46'0 0.0
2014-Aug-26 15:32N 35°39' E 139°46'0 0.0
2014-Aug-26 14:29N 35°39' E 139°46'0 0.0
2014-Aug-26 13:32N 35°39' E 139°46'0 0.0
2014-Aug-26 12:32N 35°39' E 139°46'0 0.0
2014-Aug-26 11:32N 35°39' E 139°46'0 0.0
2014-Aug-26 10:29N 35°39' E 139°46'0 0.0
2014-Aug-26 09:32N 35°39' E 139°46'0 0.0
2014-Aug-26 08:29N 35°39' E 139°46'1 1.3
2014-Aug-26 07:33N 35°38' E 139°46'1 1.1
2014-Aug-26 06:29N 35°39' E 139°46'0 0.0
2014-Aug-26 05:32N 35°39' E 139°46'0 0.0
2014-Aug-26 04:32N 35°39' E 139°46'0 0.0
2014-Aug-26 03:32N 35°39' E 139°46'0 0.0
2014-Aug-26 02:20N 35°39' E 139°46'0 0.0
2014-Aug-26 01:32N 35°39' E 139°46'0 0.0
2014-Aug-26 00:32N 35°39' E 139°46'0 0.0
2014-Aug-25 23:29N 35°39' E 139°46'2 2.4
2014-Aug-25 22:32N 35°37' E 139°46'2 2.6
2014-Aug-25 21:33N 35°35' E 139°48'2 1.7
2014-Aug-25 20:33N 35°36' E 139°47'2 1.9
2014-Aug-25 19:33N 35°38' E 139°46'1 1.2
2014-Aug-25 18:33N 35°39' E 139°46'0 0.0
2014-Aug-25 17:30N 35°39' E 139°46'0 0.0
2014-Aug-25 16:33N 35°39' E 139°46'0 0.0
2014-Aug-25 15:30N 35°39' E 139°46'0 0.0
2014-Aug-25 14:33N 35°39' E 139°46'0 0.0
2014-Aug-25 13:30N 35°39' E 139°46'0 0.0
2014-Aug-25 12:33N 35°39' E 139°46'0 0.0
2014-Aug-25 11:33N 35°39' E 139°46'0 0.0
2014-Aug-25 10:33N 35°39' E 139°46'0 0.0
2014-Aug-25 09:33N 35°39' E 139°46'0 0.0
2014-Aug-25 08:24N 35°39' E 139°46'0 0.0
2014-Aug-25 07:33N 35°39' E 139°46'0 0.0
2014-Aug-25 06:33N 35°39' E 139°46'0 0.0
2014-Aug-25 05:32N 35°39' E 139°46'0 0.0
2014-Aug-25 04:32N 35°39' E 139°46'0 0.0
2014-Aug-25 03:30N 35°39' E 139°46'0 0.0
2014-Aug-25 02:32N 35°39' E 139°46'0 0.0
2014-Aug-25 01:29N 35°39' E 139°46'0 0.0
2014-Aug-25 00:32N 35°39' E 139°46'0 0.0
2014-Aug-24 23:29N 35°39' E 139°46'3 3.1
2014-Aug-24 22:31N 35°36' E 139°46'4 4.0
2014-Aug-24 21:33N 35°34' E 139°50'6 6.2
2014-Aug-24 20:30N 35°39' E 139°46'0 0.0
2014-Aug-24 19:30N 35°39' E 139°46'0 0.0
2014-Aug-24 18:33N 35°39' E 139°46'0 0.0
2014-Aug-24 17:30N 35°39' E 139°46'0 0.0
2014-Aug-24 16:33N 35°39' E 139°46'0 0.0
2014-Aug-24 15:33N 35°39' E 139°46'0 0.0
2014-Aug-24 14:33N 35°39' E 139°46'0 0.0
2014-Aug-24 13:30N 35°39' E 139°46'0 0.0
2014-Aug-24 12:30N 35°39' E 139°46'0 0.0
2014-Aug-24 11:33N 35°39' E 139°46'0 0.0
2014-Aug-24 10:33N 35°39' E 139°46'0 0.0
2014-Aug-24 09:30N 35°39' E 139°46'0 0.0
2014-Aug-24 08:33N 35°39' E 139°46'0 0.0
2014-Aug-24 07:27N 35°39' E 139°46'0 0.0
2014-Aug-24 06:30N 35°39' E 139°46'0 0.0
2014-Aug-24 05:30N 35°39' E 139°46'0 0.0
2014-Aug-24 04:33N 35°39' E 139°46'0 0.0
2014-Aug-24 03:33N 35°39' E 139°46'0 0.0
2014-Aug-24 02:30N 35°39' E 139°46'0 0.0
2014-Aug-24 01:33N 35°39' E 139°46'0 0.0
2014-Aug-24 00:30N 35°39' E 139°46'0 0.0
2014-Aug-23 23:33N 35°39' E 139°46'0 0.0
2014-Aug-23 22:33N 35°39' E 139°46'0 0.0
2014-Aug-23 21:30N 35°39' E 139°46'0 0.0
2014-Aug-23 20:33N 35°39' E 139°46'0 0.0
2014-Aug-23 19:33N 35°39' E 139°46'0 0.0
2014-Aug-23 03:30N 35°39' E 139°46'0 0.0
2014-Aug-23 02:33N 35°39' E 139°46'0 0.0
2014-Aug-23 01:33N 35°39' E 139°46'0 0.0
2014-Aug-23 00:27N 35°39' E 139°46'0 0.0
2014-Aug-22 23:33N 35°39' E 139°46'0 0.0
2014-Aug-22 22:30N 35°39' E 139°46'0 0.0
2014-Aug-22 21:30N 35°39' E 139°46'0 0.0
2014-Aug-22 20:33N 35°39' E 139°46'0 0.0
2014-Aug-22 19:27N 35°39' E 139°46'0 0.0
2014-Aug-22 18:30N 35°39' E 139°46'0 0.0
2014-Aug-22 17:33N 35°39' E 139°46'0 0.0
2014-Aug-22 16:33N 35°39' E 139°46'0 0.0
2014-Aug-22 15:33N 35°39' E 139°46'0 0.0
2014-Aug-22 14:33N 35°39' E 139°46'0 0.0
2014-Aug-22 13:33N 35°39' E 139°46'0 0.0
2014-Aug-22 12:33N 35°39' E 139°46'0 0.0
2014-Aug-22 11:33N 35°39' E 139°46'0 0.0
2014-Aug-22 10:27N 35°39' E 139°46'3 3.6
2014-Aug-22 09:33N 35°36' E 139°48'0 0.0
2014-Aug-22 08:33N 35°36' E 139°48'1 1.0
2014-Aug-22 07:33N 35°35' E 139°47'0 0.0
2014-Aug-22 06:33N 35°35' E 139°47'2 1.6
2014-Aug-22 05:33N 35°37' E 139°46'2 1.8
2014-Aug-22 04:32N 35°39' E 139°46'0 0.0
2014-Aug-22 03:32N 35°39' E 139°46'0 0.1
2014-Aug-22 02:32N 35°39' E 139°46'2 2.3
2014-Aug-22 01:32N 35°37' E 139°47'4 3.9
2014-Aug-22 00:33N 35°34' E 139°50'6 5.6
2014-Aug-21 23:28N 35°39' E 139°46'0 0.0
2014-Aug-21 22:28N 35°39' E 139°46'0 0.0
2014-Aug-21 21:31N 35°39' E 139°46'0 0.0
2014-Aug-21 20:28N 35°39' E 139°46'0 0.0
2014-Aug-21 19:31N 35°39' E 139°46'0 0.0
2014-Aug-21 18:31N 35°39' E 139°46'0 0.0
2014-Aug-21 17:31N 35°39' E 139°46'0 0.0
2014-Aug-21 16:31N 35°39' E 139°46'0 0.0
2014-Aug-21 15:31N 35°39' E 139°46'0 0.0
2014-Aug-21 14:31N 35°39' E 139°46'0 0.0
2014-Aug-21 13:31N 35°39' E 139°46'0 0.0
2014-Aug-21 12:28N 35°39' E 139°46'0 0.0
2014-Aug-21 11:28N 35°39' E 139°46'0 0.0
2014-Aug-21 10:31N 35°39' E 139°46'5 5.0
2014-Aug-21 09:33N 35°35' E 139°48'3 3.3
2014-Aug-21 08:32N 35°37' E 139°46'4 4.2
2014-Aug-21 07:33N 35°34' E 139°49'4 4.2
2014-Aug-21 06:32N 35°37' E 139°46'1 1.4
2014-Aug-21 05:30N 35°39' E 139°46'0 0.0
2014-Aug-21 04:27N 35°39' E 139°46'  
Track history (hours):
 
Tides and Currents Weather Stations Pressure Air Temp Water Temp Dewpoint Dewpoint Depression Visibility Wind Speed Wind Dir Waves Ship Positions

Fuji Maru

Last reported at 2014-Aug-31 04:28 UTC. Time now 2014-Aug-31 04:36 UTC.
Position N 35°39' E 139°46'.

Length 38 m; draft 4.4 m.

Type: Tug. MMSI: 431001102.

Date/timePositionNaut miles runAvg speedWind from/ knotsBaromVisibWave heightAir tempDewpointWater temp
2014-Aug-31 04:28N 35°39' E 139°46'0 0.0
2014-Aug-31 03:31N 35°39' E 139°46'0 0.0
2014-Aug-31 02:31N 35°39' E 139°46'0 0.0
2014-Aug-31 01:31N 35°39' E 139°46'0 0.0
2014-Aug-31 00:31N 35°39' E 139°46'2 2.3
2014-Aug-30 23:31N 35°37' E 139°47'2 2.2
2014-Aug-30 22:26N 35°39' E 139°46'0 0.0
2014-Aug-30 21:29N 35°39' E 139°46'0 0.1
2014-Aug-30 20:32N 35°39' E 139°46'0 0.0
2014-Aug-30 19:32N 35°39' E 139°46'0 0.0
2014-Aug-30 18:29N 35°39' E 139°46'0 0.0
2014-Aug-30 17:29N 35°39' E 139°46'0 0.0
2014-Aug-30 16:32N 35°39' E 139°46'0 0.0
2014-Aug-30 15:32N 35°39' E 139°46'0 0.0
2014-Aug-30 14:29N 35°39' E 139°46'0 0.0
2014-Aug-30 13:26N 35°39' E 139°46'0 0.0
2014-Aug-30 12:29N 35°39' E 139°46'0 0.0
2014-Aug-30 11:32N 35°39' E 139°46'0 0.0
2014-Aug-30 10:32N 35°39' E 139°46'2 2.4
2014-Aug-30 09:32N 35°37' E 139°47'2 1.9
2014-Aug-30 08:33N 35°35' E 139°48'1 1.2
2014-Aug-30 07:32N 35°36' E 139°46'1 0.8
2014-Aug-30 06:33N 35°36' E 139°46'2 2.3
2014-Aug-30 05:31N 35°39' E 139°46'0 0.0
2014-Aug-30 04:31N 35°39' E 139°46'0 0.0
2014-Aug-30 03:28N 35°39' E 139°46'0 0.0
2014-Aug-30 02:31N 35°39' E 139°46'0 0.0
2014-Aug-30 01:28N 35°39' E 139°46'0 0.0
2014-Aug-30 00:25N 35°39' E 139°46'0 0.0
2014-Aug-29 23:31N 35°39' E 139°46'3 2.3
2014-Aug-29 22:26N 35°36' E 139°47'3 2.9
2014-Aug-29 21:32N 35°34' E 139°49'3 3.3
2014-Aug-29 20:34N 35°37' E 139°46'1 1.4
2014-Aug-29 19:34N 35°36' E 139°47'3 2.6
2014-Aug-29 18:33N 35°38' E 139°46'1 0.7
2014-Aug-29 17:31N 35°39' E 139°46'0 0.0
2014-Aug-29 16:31N 35°39' E 139°46'0 0.0
2014-Aug-29 15:25N 35°39' E 139°46'0 0.0
2014-Aug-29 14:22N 35°39' E 139°46'0 0.0
2014-Aug-29 13:31N 35°39' E 139°46'0 0.0
2014-Aug-29 12:31N 35°39' E 139°46'0 0.0
2014-Aug-29 11:31N 35°39' E 139°46'0 0.0
2014-Aug-29 10:28N 35°39' E 139°46'0 0.1
2014-Aug-29 09:31N 35°39' E 139°46'0 0.0
2014-Aug-29 08:31N 35°39' E 139°46'0 0.0
2014-Aug-29 07:28N 35°39' E 139°46'0 0.0
2014-Aug-29 06:31N 35°39' E 139°46'0 0.0
2014-Aug-29 05:28N 35°39' E 139°46'0 0.4
2014-Aug-29 04:33N 35°39' E 139°46'4 3.9
2014-Aug-29 03:33N 35°35' E 139°48'0 0.4
2014-Aug-29 02:33N 35°35' E 139°48'4 3.5
2014-Aug-29 01:26N 35°39' E 139°46'0 0.0
2014-Aug-29 00:32N 35°39' E 139°46'3 2.8
2014-Aug-28 23:29N 35°36' E 139°47'1 1.6
2014-Aug-28 22:34N 35°35' E 139°48'4 4.3
2014-Aug-28 21:31N 35°39' E 139°46'0 0.0
2014-Aug-28 20:25N 35°39' E 139°46'0 0.0
2014-Aug-28 19:28N 35°39' E 139°46'0 0.0
2014-Aug-28 18:31N 35°39' E 139°46'0 0.0
2014-Aug-28 17:31N 35°39' E 139°46'0 0.0
2014-Aug-28 16:31N 35°39' E 139°46'0 0.0
2014-Aug-28 15:31N 35°39' E 139°46'0 0.0
2014-Aug-28 14:25N 35°39' E 139°46'0 0.0
2014-Aug-28 13:31N 35°39' E 139°46'0 0.0
2014-Aug-28 12:28N 35°39' E 139°46'0 0.0
2014-Aug-28 11:25N 35°39' E 139°46'0 0.0
2014-Aug-28 10:31N 35°39' E 139°46'0 0.0
2014-Aug-28 09:25N 35°39' E 139°46'0 0.0
2014-Aug-28 08:31N 35°39' E 139°46'0 0.0
2014-Aug-28 07:31N 35°39' E 139°46'0 0.0
2014-Aug-28 06:31N 35°39' E 139°46'0 0.0
2014-Aug-28 05:31N 35°39' E 139°46'0 0.0
2014-Aug-28 04:31N 35°39' E 139°46'0 0.0
2014-Aug-28 03:25N 35°39' E 139°46'0 0.0
2014-Aug-28 02:31N 35°39' E 139°46'0 0.0
2014-Aug-28 01:28N 35°39' E 139°46'0 0.0
2014-Aug-28 00:31N 35°39' E 139°46'0 0.0
2014-Aug-27 23:31N 35°39' E 139°46'0 0.0
2014-Aug-27 22:31N 35°39' E 139°46'0 0.0
2014-Aug-27 21:31N 35°39' E 139°46'0 0.0
2014-Aug-27 20:31N 35°39' E 139°46'2 2.2
2014-Aug-27 19:28N 35°36' E 139°46'2 1.7
2014-Aug-27 18:31N 35°38' E 139°46'0 0.0
2014-Aug-27 17:31N 35°38' E 139°46'0 0.0
2014-Aug-27 16:31N 35°38' E 139°46'0 0.0
2014-Aug-27 15:28N 35°38' E 139°46'1 0.8
2014-Aug-27 14:33N 35°37' E 139°46'2 2.0
2014-Aug-27 13:33N 35°36' E 139°48'0 0.0
2014-Aug-27 12:30N 35°36' E 139°48'1 1.0
2014-Aug-27 11:33N 35°36' E 139°47'1 0.8
2014-Aug-27 10:29N 35°37' E 139°47'1 1.0
2014-Aug-27 09:31N 35°36' E 139°47'3 2.8
2014-Aug-27 08:33N 35°34' E 139°49'6 5.1
2014-Aug-27 07:29N 35°39' E 139°46'0 0.0
2014-Aug-27 06:32N 35°39' E 139°46'0 0.0
2014-Aug-27 05:32N 35°39' E 139°46'0 0.0
2014-Aug-27 04:32N 35°39' E 139°46'0 0.0
2014-Aug-27 03:32N 35°39' E 139°46'0 0.0
2014-Aug-27 02:29N 35°39' E 139°46'0 0.0
2014-Aug-27 01:32N 35°39' E 139°46'0 0.0
2014-Aug-27 00:32N 35°39' E 139°46'0 0.3
2014-Aug-26 23:33N 35°39' E 139°46'4 3.7
2014-Aug-26 22:34N 35°35' E 139°47'4 3.9
2014-Aug-26 21:32N 35°39' E 139°46'0 0.0
2014-Aug-26 20:26N 35°39' E 139°46'0 0.0
2014-Aug-26 19:32N 35°39' E 139°46'0 0.0
2014-Aug-26 18:29N 35°39' E 139°46'0 0.0
2014-Aug-26 17:32N 35°39' E 139°46'0 0.0
2014-Aug-26 16:32N 35°39' E 139°46'0 0.0
2014-Aug-26 15:32N 35°39' E 139°46'0 0.0
2014-Aug-26 14:29N 35°39' E 139°46'0 0.0
2014-Aug-26 13:32N 35°39' E 139°46'0 0.0
2014-Aug-26 12:32N 35°39' E 139°46'0 0.0
2014-Aug-26 11:32N 35°39' E 139°46'0 0.0
2014-Aug-26 10:29N 35°39' E 139°46'0 0.0
2014-Aug-26 09:32N 35°39' E 139°46'0 0.0
2014-Aug-26 08:29N 35°39' E 139°46'1 1.3
2014-Aug-26 07:33N 35°38' E 139°46'1 1.1
2014-Aug-26 06:29N 35°39' E 139°46'0 0.0
2014-Aug-26 05:32N 35°39' E 139°46'0 0.0
2014-Aug-26 04:32N 35°39' E 139°46'0 0.0
2014-Aug-26 03:32N 35°39' E 139°46'0 0.0
2014-Aug-26 02:20N 35°39' E 139°46'0 0.0
2014-Aug-26 01:32N 35°39' E 139°46'0 0.0
2014-Aug-26 00:32N 35°39' E 139°46'0 0.0
2014-Aug-25 23:29N 35°39' E 139°46'2 2.4
2014-Aug-25 22:32N 35°37' E 139°46'2 2.6
2014-Aug-25 21:33N 35°35' E 139°48'2 1.7
2014-Aug-25 20:33N 35°36' E 139°47'2 1.9
2014-Aug-25 19:33N 35°38' E 139°46'1 1.2
2014-Aug-25 18:33N 35°39' E 139°46'0 0.0
2014-Aug-25 17:30N 35°39' E 139°46'0 0.0
2014-Aug-25 16:33N 35°39' E 139°46'0 0.0
2014-Aug-25 15:30N 35°39' E 139°46'0 0.0
2014-Aug-25 14:33N 35°39' E 139°46'0 0.0
2014-Aug-25 13:30N 35°39' E 139°46'0 0.0
2014-Aug-25 12:33N 35°39' E 139°46'0 0.0
2014-Aug-25 11:33N 35°39' E 139°46'0 0.0
2014-Aug-25 10:33N 35°39' E 139°46'0 0.0
2014-Aug-25 09:33N 35°39' E 139°46'0 0.0
2014-Aug-25 08:24N 35°39' E 139°46'0 0.0
2014-Aug-25 07:33N 35°39' E 139°46'0 0.0
2014-Aug-25 06:33N 35°39' E 139°46'0 0.0
2014-Aug-25 05:32N 35°39' E 139°46'0 0.0
2014-Aug-25 04:32N 35°39' E 139°46'0 0.0
2014-Aug-25 03:30N 35°39' E 139°46'0 0.0
2014-Aug-25 02:32N 35°39' E 139°46'0 0.0
2014-Aug-25 01:29N 35°39' E 139°46'0 0.0
2014-Aug-25 00:32N 35°39' E 139°46'0 0.0
2014-Aug-24 23:29N 35°39' E 139°46'3 3.1
2014-Aug-24 22:31N 35°36' E 139°46'4 4.0
2014-Aug-24 21:33N 35°34' E 139°50'6 6.2
2014-Aug-24 20:30N 35°39' E 139°46'0 0.0
2014-Aug-24 19:30N 35°39' E 139°46'0 0.0
2014-Aug-24 18:33N 35°39' E 139°46'0 0.0
2014-Aug-24 17:30N 35°39' E 139°46'0 0.0
2014-Aug-24 16:33N 35°39' E 139°46'0 0.0
2014-Aug-24 15:33N 35°39' E 139°46'0 0.0
2014-Aug-24 14:33N 35°39' E 139°46'0 0.0
2014-Aug-24 13:30N 35°39' E 139°46'0 0.0
2014-Aug-24 12:30N 35°39' E 139°46'0 0.0
2014-Aug-24 11:33N 35°39' E 139°46'0 0.0
2014-Aug-24 10:33N 35°39' E 139°46'0 0.0
2014-Aug-24 09:30N 35°39' E 139°46'0 0.0
2014-Aug-24 08:33N 35°39' E 139°46'0 0.0
2014-Aug-24 07:27N 35°39' E 139°46'0 0.0
2014-Aug-24 06:30N 35°39' E 139°46'0 0.0
2014-Aug-24 05:30N 35°39' E 139°46'0 0.0
2014-Aug-24 04:33N 35°39' E 139°46'0 0.0
2014-Aug-24 03:33N 35°39' E 139°46'0 0.0
2014-Aug-24 02:30N 35°39' E 139°46'0 0.0
2014-Aug-24 01:33N 35°39' E 139°46'0 0.0
2014-Aug-24 00:30N 35°39' E 139°46'0 0.0
2014-Aug-23 23:33N 35°39' E 139°46'0 0.0
2014-Aug-23 22:33N 35°39' E 139°46'0 0.0
2014-Aug-23 21:30N 35°39' E 139°46'0 0.0
2014-Aug-23 20:33N 35°39' E 139°46'0 0.0
2014-Aug-23 19:33N 35°39' E 139°46'0 0.0
2014-Aug-23 03:30N 35°39' E 139°46'0 0.0
2014-Aug-23 02:33N 35°39' E 139°46'0 0.0
2014-Aug-23 01:33N 35°39' E 139°46'0 0.0
2014-Aug-23 00:27N 35°39' E 139°46'0 0.0
2014-Aug-22 23:33N 35°39' E 139°46'0 0.0
2014-Aug-22 22:30N 35°39' E 139°46'0 0.0
2014-Aug-22 21:30N 35°39' E 139°46'0 0.0
2014-Aug-22 20:33N 35°39' E 139°46'0 0.0
2014-Aug-22 19:27N 35°39' E 139°46'0 0.0
2014-Aug-22 18:30N 35°39' E 139°46'0 0.0
2014-Aug-22 17:33N 35°39' E 139°46'0 0.0
2014-Aug-22 16:33N 35°39' E 139°46'0 0.0
2014-Aug-22 15:33N 35°39' E 139°46'0 0.0
2014-Aug-22 14:33N 35°39' E 139°46'0 0.0
2014-Aug-22 13:33N 35°39' E 139°46'0 0.0
2014-Aug-22 12:33N 35°39' E 139°46'0 0.0
2014-Aug-22 11:33N 35°39' E 139°46'0 0.0
2014-Aug-22 10:27N 35°39' E 139°46'3 3.6
2014-Aug-22 09:33N 35°36' E 139°48'0 0.0
2014-Aug-22 08:33N 35°36' E 139°48'1 1.0
2014-Aug-22 07:33N 35°35' E 139°47'0 0.0
2014-Aug-22 06:33N 35°35' E 139°47'2 1.6
2014-Aug-22 05:33N 35°37' E 139°46'2 1.8
2014-Aug-22 04:32N 35°39' E 139°46'0 0.0
2014-Aug-22 03:32N 35°39' E 139°46'0 0.1
2014-Aug-22 02:32N 35°39' E 139°46'2 2.3
2014-Aug-22 01:32N 35°37' E 139°47'4 3.9
2014-Aug-22 00:33N 35°34' E 139°50'6 5.6
2014-Aug-21 23:28N 35°39' E 139°46'0 0.0
2014-Aug-21 22:28N 35°39' E 139°46'0 0.0
2014-Aug-21 21:31N 35°39' E 139°46'0 0.0
2014-Aug-21 20:28N 35°39' E 139°46'0 0.0
2014-Aug-21 19:31N 35°39' E 139°46'0 0.0
2014-Aug-21 18:31N 35°39' E 139°46'0 0.0
2014-Aug-21 17:31N 35°39' E 139°46'0 0.0
2014-Aug-21 16:31N 35°39' E 139°46'0 0.0
2014-Aug-21 15:31N 35°39' E 139°46'0 0.0
2014-Aug-21 14:31N 35°39' E 139°46'0 0.0
2014-Aug-21 13:31N 35°39' E 139°46'0 0.0
2014-Aug-21 12:28N 35°39' E 139°46'0 0.0
2014-Aug-21 11:28N 35°39' E 139°46'0 0.0
2014-Aug-21 10:31N 35°39' E 139°46'5 5.0
2014-Aug-21 09:33N 35°35' E 139°48'3 3.3
2014-Aug-21 08:32N 35°37' E 139°46'4 4.2
2014-Aug-21 07:33N 35°34' E 139°49'4 4.2
2014-Aug-21 06:32N 35°37' E 139°46'1 1.4
2014-Aug-21 05:30N 35°39' E 139°46'0 0.0
2014-Aug-21 04:27N 35°39' E 139°46'  

Dump ship's entire track history